Terminal Aerodrome Forecast
Issued by NWS

Home | Current Version | Previous Version | Text Only | Print | Product List | Glossary On
Versions: 1 2 3 4 5 6 7 8 9 10 11 12 13 14 15 16 17 18 19 20 21 22 23
000
FTUS44 KOHX 311700
TAFCKV
TAF
KCKV 311728Z 3118/0118 13005KT P6SM BKN200
     FM010600 18007KT P6SM OVC100 WS020/20040KT
     FM011500 18014G24KT 6SM -RA BKN035 OVC070=

USA.gov is the U.S. government's official web portal to all federal, state and local government web resources and services.